sensor_id;sensor_type;location;lat;lon;timestamp;P1;durP1;ratioP1;P2;durP2;ratioP2
54517;SDS011;40423;53.176;6.002;2023-02-15T00:00:21;24.55;;;20.05;;
54517;SDS011;40423;53.176;6.002;2023-02-15T00:02:47;23.98;;;19.63;;
54517;SDS011;40423;53.176;6.002;2023-02-15T00:05:12;24.15;;;19.63;;
54517;SDS011;40423;53.176;6.002;2023-02-15T00:07:38;27.77;;;21.83;;
54517;SDS011;40423;53.176;6.002;2023-02-15T00:10:04;26.70;;;20.60;;
54517;SDS011;40423;53.176;6.002;2023-02-15T00:12:31;25.63;;;20.35;;
54517;SDS011;40423;53.176;6.002;2023-02-15T00:14:57;30.08;;;23.17;;
54517;SDS011;40423;53.176;6.002;2023-02-15T00:17:22;22.50;;;17.23;;
54517;SDS011;40423;53.176;6.002;2023-02-15T00:19:48;29.98;;;21.45;;
54517;SDS011;40423;53.176;6.002;2023-02-15T00:22:14;30.80;;;22.95;;
54517;SDS011;40423;53.176;6.002;2023-02-15T00:24:40;34.17;;;25.83;;
54517;SDS011;40423;53.176;6.002;2023-02-15T00:27:05;33.30;;;23.88;;
54517;SDS011;40423;53.176;6.002;2023-02-15T00:29:31;35.35;;;25.48;;
54517;SDS011;40423;53.176;6.002;2023-02-15T00:31:57;47.67;;;25.95;;
54517;SDS011;40423;53.176;6.002;2023-02-15T00:34:24;46.17;;;25.80;;
54517;SDS011;40423;53.176;6.002;2023-02-15T00:36:51;188.57;;;34.03;;
54517;SDS011;40423;53.176;6.002;2023-02-15T00:39:17;293.48;;;43.95;;
54517;SDS011;40423;53.176;6.002;2023-02-15T00:41:44;299.73;;;46.58;;
54517;SDS011;40423;53.176;6.002;2023-02-15T00:44:10;273.70;;;42.70;;
54517;SDS011;40423;53.176;6.002;2023-02-15T00:46:36;176.77;;;38.40;;
54517;SDS011;40423;53.176;6.002;2023-02-15T00:49:02;153.13;;;38.47;;
54517;SDS011;40423;53.176;6.002;2023-02-15T00:51:29;115.78;;;33.45;;
54517;SDS011;40423;53.176;6.002;2023-02-15T00:53:54;393.85;;;59.85;;
54517;SDS011;40423;53.176;6.002;2023-02-15T00:56:20;122.25;;;39.13;;
54517;SDS011;40423;53.176;6.002;2023-02-15T00:58:46;397.77;;;59.33;;
54517;SDS011;40423;53.176;6.002;2023-02-15T01:01:14;174.93;;;39.55;;
54517;SDS011;40423;53.176;6.002;2023-02-15T01:03:41;411.83;;;50.75;;
54517;SDS011;40423;53.176;6.002;2023-02-15T01:06:07;414.08;;;49.72;;
54517;SDS011;40423;53.176;6.002;2023-02-15T01:08:34;416.85;;;56.15;;
54517;SDS011;40423;53.176;6.002;2023-02-15T01:11:04;532.60;;;70.65;;
54517;SDS011;40423;53.176;6.002;2023-02-15T01:13:34;391.75;;;55.72;;
54517;SDS011;40423;53.176;6.002;2023-02-15T01:16:00;291.95;;;45.13;;
54517;SDS011;40423;53.176;6.002;2023-02-15T01:18:27;167.20;;;36.15;;
54517;SDS011;40423;53.176;6.002;2023-02-15T01:20:52;423.63;;;61.30;;
54517;SDS011;40423;53.176;6.002;2023-02-15T01:23:18;273.10;;;47.47;;
54517;SDS011;40423;53.176;6.002;2023-02-15T01:25:44;123.38;;;34.30;;
54517;SDS011;40423;53.176;6.002;2023-02-15T01:28:10;251.65;;;49.58;;
54517;SDS011;40423;53.176;6.002;2023-02-15T01:30:36;151.23;;;38.50;;
54517;SDS011;40423;53.176;6.002;2023-02-15T01:33:02;148.60;;;37.55;;
54517;SDS011;40423;53.176;6.002;2023-02-15T01:35:28;153.32;;;40.95;;
54517;SDS011;40423;53.176;6.002;2023-02-15T01:37:57;127.45;;;38.10;;
54517;SDS011;40423;53.176;6.002;2023-02-15T01:40:23;51.22;;;32.13;;
54517;SDS011;40423;53.176;6.002;2023-02-15T01:42:50;50.72;;;32.33;;
54517;SDS011;40423;53.176;6.002;2023-02-15T01:45:22;117.20;;;34.45;;
54517;SDS011;40423;53.176;6.002;2023-02-15T01:47:50;158.20;;;38.25;;
54517;SDS011;40423;53.176;6.002;2023-02-15T01:55:22;62.83;;;33.03;;
54517;SDS011;40423;53.176;6.002;2023-02-15T01:57:51;74.38;;;31.60;;
54517;SDS011;40423;53.176;6.002;2023-02-15T02:00:17;149.60;;;39.15;;
54517;SDS011;40423;53.176;6.002;2023-02-15T02:02:44;99.00;;;34.78;;
54517;SDS011;40423;53.176;6.002;2023-02-15T02:05:13;53.00;;;31.73;;
54517;SDS011;40423;53.176;6.002;2023-02-15T02:07:43;53.42;;;29.23;;
54517;SDS011;40423;53.176;6.002;2023-02-15T02:10:12;39.80;;;28.55;;
54517;SDS011;40423;53.176;6.002;2023-02-15T02:12:41;123.18;;;36.17;;
54517;SDS011;40423;53.176;6.002;2023-02-15T02:15:08;65.22;;;25.83;;
54517;SDS011;40423;53.176;6.002;2023-02-15T02:31:40;36.03;;;26.92;;
54517;SDS011;40423;53.176;6.002;2023-02-15T02:36:58;34.95;;;26.92;;
54517;SDS011;40423;53.176;6.002;2023-02-15T02:39:49;32.17;;;24.50;;
54517;SDS011;40423;53.176;6.002;2023-02-15T02:42:35;57.42;;;30.10;;
54517;SDS011;40423;53.176;6.002;2023-02-15T02:47:58;289.20;;;49.30;;
54517;SDS011;40423;53.176;6.002;2023-02-15T02:50:29;297.25;;;52.92;;
54517;SDS011;40423;53.176;6.002;2023-02-15T02:52:56;258.80;;;50.40;;
54517;SDS011;40423;53.176;6.002;2023-02-15T02:55:25;98.03;;;34.53;;
54517;SDS011;40423;53.176;6.002;2023-02-15T03:00:59;39.58;;;28.75;;
54517;SDS011;40423;53.176;6.002;2023-02-15T03:03:51;59.72;;;33.65;;
54517;SDS011;40423;53.176;6.002;2023-02-15T03:06:24;47.17;;;30.17;;
54517;SDS011;40423;53.176;6.002;2023-02-15T03:08:54;41.95;;;28.85;;
54517;SDS011;40423;53.176;6.002;2023-02-15T03:11:28;41.10;;;29.20;;
54517;SDS011;40423;53.176;6.002;2023-02-15T03:13:54;39.47;;;29.13;;
54517;SDS011;40423;53.176;6.002;2023-02-15T03:16:21;58.80;;;33.00;;
54517;SDS011;40423;53.176;6.002;2023-02-15T03:19:07;39.35;;;27.23;;
54517;SDS011;40423;53.176;6.002;2023-02-15T03:21:38;38.75;;;27.98;;
54517;SDS011;40423;53.176;6.002;2023-02-15T03:24:14;37.15;;;25.52;;
54517;SDS011;40423;53.176;6.002;2023-02-15T03:26:45;36.97;;;26.30;;
54517;SDS011;40423;53.176;6.002;2023-02-15T03:29:15;32.35;;;23.45;;
54517;SDS011;40423;53.176;6.002;2023-02-15T03:31:43;37.95;;;27.40;;
54517;SDS011;40423;53.176;6.002;2023-02-15T03:34:12;38.08;;;27.38;;
54517;SDS011;40423;53.176;6.002;2023-02-15T03:37:15;35.85;;;26.25;;
54517;SDS011;40423;53.176;6.002;2023-02-15T03:41:59;36.72;;;26.73;;
54517;SDS011;40423;53.176;6.002;2023-02-15T03:44:30;39.67;;;27.77;;
54517;SDS011;40423;53.176;6.002;2023-02-15T03:52:59;32.67;;;24.27;;
54517;SDS011;40423;53.176;6.002;2023-02-15T03:55:28;32.42;;;23.40;;
54517;SDS011;40423;53.176;6.002;2023-02-15T03:57:54;34.92;;;25.73;;
54517;SDS011;40423;53.176;6.002;2023-02-15T04:00:40;34.70;;;24.73;;
54517;SDS011;40423;53.176;6.002;2023-02-15T04:03:56;41.60;;;27.60;;
54517;SDS011;40423;53.176;6.002;2023-02-15T04:06:26;42.72;;;28.60;;
54517;SDS011;40423;53.176;6.002;2023-02-15T04:08:51;327.58;;;62.40;;
54517;SDS011;40423;53.176;6.002;2023-02-15T04:11:36;63.05;;;33.97;;
54517;SDS011;40423;53.176;6.002;2023-02-15T04:14:01;51.33;;;33.28;;
54517;SDS011;40423;53.176;6.002;2023-02-15T04:16:47;49.17;;;31.02;;
54517;SDS011;40423;53.176;6.002;2023-02-15T04:19:13;49.13;;;32.05;;
54517;SDS011;40423;53.176;6.002;2023-02-15T04:21:57;56.13;;;34.85;;
54517;SDS011;40423;53.176;6.002;2023-02-15T04:24:41;54.03;;;35.28;;
54517;SDS011;40423;53.176;6.002;2023-02-15T04:29:50;50.58;;;31.90;;
54517;SDS011;40423;53.176;6.002;2023-02-15T04:32:16;50.58;;;32.50;;
54517;SDS011;40423;53.176;6.002;2023-02-15T04:34:42;221.05;;;51.58;;
54517;SDS011;40423;53.176;6.002;2023-02-15T04:37:08;54.60;;;33.40;;
54517;SDS011;40423;53.176;6.002;2023-02-15T04:39:33;63.05;;;38.78;;
54517;SDS011;40423;53.176;6.002;2023-02-15T04:41:59;49.55;;;32.33;;
54517;SDS011;40423;53.176;6.002;2023-02-15T04:44:25;51.05;;;33.65;;
54517;SDS011;40423;53.176;6.002;2023-02-15T04:46:50;46.92;;;30.40;;
54517;SDS011;40423;53.176;6.002;2023-02-15T04:49:16;54.10;;;34.63;;
54517;SDS011;40423;53.176;6.002;2023-02-15T04:51:42;50.33;;;32.58;;
54517;SDS011;40423;53.176;6.002;2023-02-15T04:54:07;55.15;;;33.90;;
54517;SDS011;40423;53.176;6.002;2023-02-15T04:56:33;51.20;;;31.65;;
54517;SDS011;40423;53.176;6.002;2023-02-15T04:59:00;51.63;;;33.42;;
54517;SDS011;40423;53.176;6.002;2023-02-15T05:01:25;48.17;;;32.42;;
54517;SDS011;40423;53.176;6.002;2023-02-15T05:03:51;50.88;;;31.83;;
54517;SDS011;40423;53.176;6.002;2023-02-15T05:06:17;47.28;;;31.23;;
54517;SDS011;40423;53.176;6.002;2023-02-15T05:08:43;54.78;;;34.80;;
54517;SDS011;40423;53.176;6.002;2023-02-15T05:11:08;49.63;;;32.78;;
54517;SDS011;40423;53.176;6.002;2023-02-15T05:13:34;54.95;;;35.70;;
54517;SDS011;40423;53.176;6.002;2023-02-15T05:16:00;47.25;;;30.25;;
54517;SDS011;40423;53.176;6.002;2023-02-15T05:18:25;49.50;;;31.70;;
54517;SDS011;40423;53.176;6.002;2023-02-15T05:20:51;52.42;;;32.58;;
54517;SDS011;40423;53.176;6.002;2023-02-15T05:23:17;54.97;;;34.40;;
54517;SDS011;40423;53.176;6.002;2023-02-15T05:25:47;50.45;;;33.58;;
54517;SDS011;40423;53.176;6.002;2023-02-15T05:28:33;51.83;;;33.05;;
54517;SDS011;40423;53.176;6.002;2023-02-15T05:31:10;63.95;;;38.20;;
54517;SDS011;40423;53.176;6.002;2023-02-15T05:33:39;52.40;;;32.08;;
54517;SDS011;40423;53.176;6.002;2023-02-15T05:36:05;63.47;;;37.15;;
54517;SDS011;40423;53.176;6.002;2023-02-15T05:38:32;61.13;;;38.58;;
54517;SDS011;40423;53.176;6.002;2023-02-15T05:40:58;60.85;;;37.70;;
54517;SDS011;40423;53.176;6.002;2023-02-15T05:43:24;53.67;;;34.20;;
54517;SDS011;40423;53.176;6.002;2023-02-15T05:45:51;52.22;;;33.13;;
54517;SDS011;40423;53.176;6.002;2023-02-15T05:48:19;51.20;;;33.35;;
54517;SDS011;40423;53.176;6.002;2023-02-15T05:50:46;55.75;;;35.63;;
54517;SDS011;40423;53.176;6.002;2023-02-15T05:53:21;47.13;;;30.90;;
54517;SDS011;40423;53.176;6.002;2023-02-15T05:55:46;52.17;;;33.00;;
54517;SDS011;40423;53.176;6.002;2023-02-15T05:58:12;48.67;;;32.88;;
54517;SDS011;40423;53.176;6.002;2023-02-15T06:00:38;49.58;;;32.55;;
54517;SDS011;40423;53.176;6.002;2023-02-15T06:03:03;63.92;;;38.35;;
54517;SDS011;40423;53.176;6.002;2023-02-15T06:05:29;63.08;;;36.55;;
54517;SDS011;40423;53.176;6.002;2023-02-15T06:07:55;78.38;;;44.38;;
54517;SDS011;40423;53.176;6.002;2023-02-15T06:10:21;84.03;;;48.35;;
54517;SDS011;40423;53.176;6.002;2023-02-15T06:12:46;82.78;;;48.67;;
54517;SDS011;40423;53.176;6.002;2023-02-15T06:15:12;73.28;;;44.63;;
54517;SDS011;40423;53.176;6.002;2023-02-15T06:17:40;85.65;;;48.45;;
54517;SDS011;40423;53.176;6.002;2023-02-15T06:20:07;86.95;;;47.63;;
54517;SDS011;40423;53.176;6.002;2023-02-15T06:22:33;82.00;;;45.35;;
54517;SDS011;40423;53.176;6.002;2023-02-15T06:24:59;73.88;;;42.00;;
54517;SDS011;40423;53.176;6.002;2023-02-15T06:27:25;70.88;;;40.35;;
54517;SDS011;40423;53.176;6.002;2023-02-15T06:29:51;86.65;;;47.97;;
54517;SDS011;40423;53.176;6.002;2023-02-15T06:32:16;74.30;;;42.90;;
54517;SDS011;40423;53.176;6.002;2023-02-15T06:34:42;68.05;;;40.67;;
54517;SDS011;40423;53.176;6.002;2023-02-15T06:37:07;62.55;;;38.90;;
54517;SDS011;40423;53.176;6.002;2023-02-15T06:39:33;69.28;;;39.65;;
54517;SDS011;40423;53.176;6.002;2023-02-15T06:41:59;91.75;;;48.80;;
54517;SDS011;40423;53.176;6.002;2023-02-15T06:44:25;83.07;;;45.35;;
54517;SDS011;40423;53.176;6.002;2023-02-15T06:46:50;71.68;;;40.88;;
54517;SDS011;40423;53.176;6.002;2023-02-15T06:49:16;74.13;;;41.13;;
54517;SDS011;40423;53.176;6.002;2023-02-15T06:51:42;83.80;;;44.83;;
54517;SDS011;40423;53.176;6.002;2023-02-15T06:54:08;85.88;;;47.33;;
54517;SDS011;40423;53.176;6.002;2023-02-15T06:56:33;77.93;;;44.85;;
54517;SDS011;40423;53.176;6.002;2023-02-15T06:58:59;71.00;;;40.53;;
54517;SDS011;40423;53.176;6.002;2023-02-15T07:01:25;79.13;;;45.03;;
54517;SDS011;40423;53.176;6.002;2023-02-15T07:03:50;81.53;;;44.40;;
54517;SDS011;40423;53.176;6.002;2023-02-15T07:06:16;84.43;;;47.22;;
54517;SDS011;40423;53.176;6.002;2023-02-15T07:08:42;96.18;;;52.00;;
54517;SDS011;40423;53.176;6.002;2023-02-15T07:11:08;90.22;;;48.38;;
54517;SDS011;40423;53.176;6.002;2023-02-15T07:16:18;86.32;;;47.38;;
54517;SDS011;40423;53.176;6.002;2023-02-15T07:18:44;89.00;;;48.67;;
54517;SDS011;40423;53.176;6.002;2023-02-15T07:21:10;92.80;;;46.92;;
54517;SDS011;40423;53.176;6.002;2023-02-15T07:23:36;96.07;;;50.38;;
54517;SDS011;40423;53.176;6.002;2023-02-15T07:26:03;83.47;;;47.72;;
54517;SDS011;40423;53.176;6.002;2023-02-15T07:28:30;90.10;;;49.55;;
54517;SDS011;40423;53.176;6.002;2023-02-15T07:30:56;90.57;;;47.88;;
54517;SDS011;40423;53.176;6.002;2023-02-15T07:33:22;78.75;;;45.30;;
54517;SDS011;40423;53.176;6.002;2023-02-15T07:35:55;90.53;;;49.03;;
54517;SDS011;40423;53.176;6.002;2023-02-15T07:38:26;86.50;;;48.63;;
54517;SDS011;40423;53.176;6.002;2023-02-15T07:41:07;84.75;;;45.35;;
54517;SDS011;40423;53.176;6.002;2023-02-15T07:43:36;79.43;;;45.35;;
54517;SDS011;40423;53.176;6.002;2023-02-15T07:46:04;85.07;;;46.08;;
54517;SDS011;40423;53.176;6.002;2023-02-15T07:48:33;93.15;;;46.58;;
54517;SDS011;40423;53.176;6.002;2023-02-15T07:51:00;84.43;;;46.90;;
54517;SDS011;40423;53.176;6.002;2023-02-15T07:53:31;81.97;;;45.72;;
54517;SDS011;40423;53.176;6.002;2023-02-15T07:56:03;73.43;;;42.58;;
54517;SDS011;40423;53.176;6.002;2023-02-15T07:58:31;86.95;;;46.35;;
54517;SDS011;40423;53.176;6.002;2023-02-15T08:01:16;81.70;;;43.95;;
54517;SDS011;40423;53.176;6.002;2023-02-15T08:03:47;74.38;;;42.58;;
54517;SDS011;40423;53.176;6.002;2023-02-15T08:06:13;72.47;;;41.97;;
54517;SDS011;40423;53.176;6.002;2023-02-15T08:08:39;76.28;;;43.10;;
54517;SDS011;40423;53.176;6.002;2023-02-15T08:14:00;72.97;;;42.08;;
54517;SDS011;40423;53.176;6.002;2023-02-15T08:16:48;73.88;;;44.88;;
54517;SDS011;40423;53.176;6.002;2023-02-15T08:19:24;75.28;;;44.10;;
54517;SDS011;40423;53.176;6.002;2023-02-15T08:21:55;69.00;;;40.70;;
54517;SDS011;40423;53.176;6.002;2023-02-15T08:24:23;77.82;;;42.53;;
54517;SDS011;40423;53.176;6.002;2023-02-15T08:26:51;68.75;;;41.20;;
54517;SDS011;40423;53.176;6.002;2023-02-15T08:29:19;69.50;;;39.78;;
54517;SDS011;40423;53.176;6.002;2023-02-15T08:31:47;69.20;;;42.42;;
54517;SDS011;40423;53.176;6.002;2023-02-15T08:34:15;66.28;;;41.17;;
54517;SDS011;40423;53.176;6.002;2023-02-15T08:36:42;75.00;;;42.40;;
54517;SDS011;40423;53.176;6.002;2023-02-15T08:39:13;69.28;;;41.20;;
54517;SDS011;40423;53.176;6.002;2023-02-15T08:41:42;70.70;;;40.67;;
54517;SDS011;40423;53.176;6.002;2023-02-15T08:44:09;65.85;;;39.00;;
54517;SDS011;40423;53.176;6.002;2023-02-15T08:46:36;68.13;;;40.03;;
54517;SDS011;40423;53.176;6.002;2023-02-15T08:49:04;65.43;;;39.17;;
54517;SDS011;40423;53.176;6.002;2023-02-15T08:51:31;63.83;;;38.78;;
54517;SDS011;40423;53.176;6.002;2023-02-15T08:54:00;62.97;;;40.05;;
54517;SDS011;40423;53.176;6.002;2023-02-15T08:56:28;67.45;;;39.30;;
54517;SDS011;40423;53.176;6.002;2023-02-15T08:58:57;61.78;;;38.75;;
54517;SDS011;40423;53.176;6.002;2023-02-15T09:01:27;65.25;;;39.97;;
54517;SDS011;40423;53.176;6.002;2023-02-15T09:03:55;62.60;;;38.33;;
54517;SDS011;40423;53.176;6.002;2023-02-15T09:06:22;66.68;;;39.72;;
54517;SDS011;40423;53.176;6.002;2023-02-15T09:08:50;64.72;;;38.75;;
54517;SDS011;40423;53.176;6.002;2023-02-15T09:11:20;58.13;;;37.00;;
54517;SDS011;40423;53.176;6.002;2023-02-15T09:13:59;69.28;;;38.92;;
54517;SDS011;40423;53.176;6.002;2023-02-15T09:16:29;58.58;;;37.08;;
54517;SDS011;40423;53.176;6.002;2023-02-15T09:18:56;64.28;;;40.30;;
54517;SDS011;40423;53.176;6.002;2023-02-15T09:21:23;63.28;;;39.40;;
54517;SDS011;40423;53.176;6.002;2023-02-15T09:23:50;61.72;;;38.90;;
54517;SDS011;40423;53.176;6.002;2023-02-15T09:26:21;66.85;;;38.55;;
54517;SDS011;40423;53.176;6.002;2023-02-15T09:28:47;64.85;;;37.95;;
54517;SDS011;40423;53.176;6.002;2023-02-15T09:31:18;60.88;;;38.97;;
54517;SDS011;40423;53.176;6.002;2023-02-15T09:33:46;56.80;;;36.10;;
54517;SDS011;40423;53.176;6.002;2023-02-15T09:36:25;57.33;;;35.85;;
54517;SDS011;40423;53.176;6.002;2023-02-15T09:38:58;58.92;;;37.33;;
54517;SDS011;40423;53.176;6.002;2023-02-15T09:44:25;61.83;;;38.90;;
54517;SDS011;40423;53.176;6.002;2023-02-15T10:06:34;62.22;;;35.72;;
54517;SDS011;40423;53.176;6.002;2023-02-15T10:09:25;67.40;;;39.33;;
54517;SDS011;40423;53.176;6.002;2023-02-15T10:17:22;64.35;;;40.20;;
54517;SDS011;40423;53.176;6.002;2023-02-15T10:25:31;58.13;;;36.45;;
54517;SDS011;40423;53.176;6.002;2023-02-15T10:28:10;60.38;;;37.17;;
54517;SDS011;40423;53.176;6.002;2023-02-15T10:33:16;65.95;;;38.95;;
54517;SDS011;40423;53.176;6.002;2023-02-15T10:41:47;55.08;;;35.85;;
54517;SDS011;40423;53.176;6.002;2023-02-15T10:47:42;54.47;;;33.83;;
54517;SDS011;40423;53.176;6.002;2023-02-15T11:03:25;58.45;;;36.70;;
54517;SDS011;40423;53.176;6.002;2023-02-15T11:06:02;64.00;;;36.00;;
54517;SDS011;40423;53.176;6.002;2023-02-15T11:08:37;57.83;;;35.47;;
54517;SDS011;40423;53.176;6.002;2023-02-15T11:11:09;60.20;;;37.28;;
54517;SDS011;40423;53.176;6.002;2023-02-15T11:13:53;60.00;;;36.33;;
54517;SDS011;40423;53.176;6.002;2023-02-15T11:16:25;56.15;;;35.70;;
54517;SDS011;40423;53.176;6.002;2023-02-15T11:19:22;58.60;;;36.80;;
54517;SDS011;40423;53.176;6.002;2023-02-15T11:21:57;61.83;;;35.70;;
54517;SDS011;40423;53.176;6.002;2023-02-15T11:24:27;62.17;;;34.80;;
54517;SDS011;40423;53.176;6.002;2023-02-15T11:27:20;53.95;;;33.13;;
54517;SDS011;40423;53.176;6.002;2023-02-15T11:29:52;54.65;;;34.80;;
54517;SDS011;40423;53.176;6.002;2023-02-15T11:32:52;56.25;;;34.50;;
54517;SDS011;40423;53.176;6.002;2023-02-15T11:35:27;53.83;;;34.45;;
54517;SDS011;40423;53.176;6.002;2023-02-15T11:38:22;53.08;;;34.47;;
54517;SDS011;40423;53.176;6.002;2023-02-15T11:40:52;60.13;;;35.80;;
54517;SDS011;40423;53.176;6.002;2023-02-15T11:43:26;60.10;;;35.92;;
54517;SDS011;40423;53.176;6.002;2023-02-15T11:46:13;59.30;;;35.30;;
54517;SDS011;40423;53.176;6.002;2023-02-15T11:48:40;58.10;;;35.90;;
54517;SDS011;40423;53.176;6.002;2023-02-15T11:51:17;55.90;;;35.17;;
54517;SDS011;40423;53.176;6.002;2023-02-15T11:53:45;57.00;;;33.40;;
54517;SDS011;40423;53.176;6.002;2023-02-15T11:56:15;53.88;;;35.00;;
54517;SDS011;40423;53.176;6.002;2023-02-15T11:58:51;53.63;;;34.72;;
54517;SDS011;40423;53.176;6.002;2023-02-15T12:03:59;56.15;;;36.45;;
54517;SDS011;40423;53.176;6.002;2023-02-15T12:09:50;56.58;;;35.63;;
54517;SDS011;40423;53.176;6.002;2023-02-15T12:14:55;63.33;;;39.13;;
54517;SDS011;40423;53.176;6.002;2023-02-15T12:17:29;58.78;;;37.30;;
54517;SDS011;40423;53.176;6.002;2023-02-15T12:22:50;61.08;;;37.58;;
54517;SDS011;40423;53.176;6.002;2023-02-15T12:25:26;58.28;;;38.15;;
54517;SDS011;40423;53.176;6.002;2023-02-15T12:27:57;60.25;;;36.67;;
54517;SDS011;40423;53.176;6.002;2023-02-15T12:30:36;55.25;;;36.25;;
54517;SDS011;40423;53.176;6.002;2023-02-15T12:33:13;53.58;;;33.70;;
54517;SDS011;40423;53.176;6.002;2023-02-15T12:38:40;52.40;;;32.80;;
54517;SDS011;40423;53.176;6.002;2023-02-15T12:41:25;56.58;;;34.17;;
54517;SDS011;40423;53.176;6.002;2023-02-15T12:46:32;53.50;;;33.53;;
54517;SDS011;40423;53.176;6.002;2023-02-15T12:49:06;54.40;;;33.05;;
54517;SDS011;40423;53.176;6.002;2023-02-15T12:51:47;54.20;;;34.30;;
54517;SDS011;40423;53.176;6.002;2023-02-15T12:56:47;47.38;;;30.10;;
54517;SDS011;40423;53.176;6.002;2023-02-15T12:59:13;46.92;;;29.77;;
54517;SDS011;40423;53.176;6.002;2023-02-15T13:01:45;47.15;;;30.60;;
54517;SDS011;40423;53.176;6.002;2023-02-15T13:06:51;46.28;;;31.13;;
54517;SDS011;40423;53.176;6.002;2023-02-15T13:11:49;48.55;;;28.98;;
54517;SDS011;40423;53.176;6.002;2023-02-15T13:16:50;45.17;;;29.00;;
54517;SDS011;40423;53.176;6.002;2023-02-15T13:19:36;42.13;;;26.83;;
54517;SDS011;40423;53.176;6.002;2023-02-15T13:22:15;45.75;;;29.27;;
54517;SDS011;40423;53.176;6.002;2023-02-15T13:24:57;44.53;;;28.13;;
54517;SDS011;40423;53.176;6.002;2023-02-15T13:27:28;43.00;;;26.23;;
54517;SDS011;40423;53.176;6.002;2023-02-15T13:30:09;43.53;;;28.70;;
54517;SDS011;40423;53.176;6.002;2023-02-15T13:49:39;47.33;;;29.15;;
54517;SDS011;40423;53.176;6.002;2023-02-15T13:52:16;46.67;;;29.08;;
54517;SDS011;40423;53.176;6.002;2023-02-15T14:06:12;49.75;;;29.73;;
54517;SDS011;40423;53.176;6.002;2023-02-15T14:14:39;49.55;;;30.70;;
54517;SDS011;40423;53.176;6.002;2023-02-15T14:20:11;44.50;;;29.23;;
54517;SDS011;40423;53.176;6.002;2023-02-15T14:28:14;42.38;;;28.30;;
54517;SDS011;40423;53.176;6.002;2023-02-15T14:30:49;45.33;;;27.30;;
54517;SDS011;40423;53.176;6.002;2023-02-15T14:35:53;44.13;;;27.25;;
54517;SDS011;40423;53.176;6.002;2023-02-15T14:38:27;44.53;;;30.20;;
54517;SDS011;40423;53.176;6.002;2023-02-15T14:45:58;43.00;;;27.33;;
54517;SDS011;40423;53.176;6.002;2023-02-15T14:48:46;48.20;;;29.23;;
54517;SDS011;40423;53.176;6.002;2023-02-15T14:56:42;43.72;;;28.83;;
54517;SDS011;40423;53.176;6.002;2023-02-15T14:59:19;48.38;;;28.83;;
54517;SDS011;40423;53.176;6.002;2023-02-15T15:01:56;42.30;;;27.13;;
54517;SDS011;40423;53.176;6.002;2023-02-15T15:07:25;44.30;;;28.50;;
54517;SDS011;40423;53.176;6.002;2023-02-15T15:12:43;47.00;;;29.60;;
54517;SDS011;40423;53.176;6.002;2023-02-15T15:15:52;46.08;;;29.70;;
54517;SDS011;40423;53.176;6.002;2023-02-15T15:18:07;48.83;;;29.13;;
54517;SDS011;40423;53.176;6.002;2023-02-15T15:25:46;51.20;;;28.90;;
54517;SDS011;40423;53.176;6.002;2023-02-15T15:47:22;53.75;;;30.83;;
54517;SDS011;40423;53.176;6.002;2023-02-15T15:50:18;51.00;;;31.13;;
54517;SDS011;40423;53.176;6.002;2023-02-15T15:52:53;52.00;;;32.25;;
54517;SDS011;40423;53.176;6.002;2023-02-15T15:55:22;51.75;;;31.85;;
54517;SDS011;40423;53.176;6.002;2023-02-15T15:57:51;51.05;;;32.40;;
54517;SDS011;40423;53.176;6.002;2023-02-15T16:02:58;52.25;;;31.30;;
54517;SDS011;40423;53.176;6.002;2023-02-15T16:05:24;52.42;;;31.33;;
54517;SDS011;40423;53.176;6.002;2023-02-15T16:07:50;51.05;;;31.33;;
54517;SDS011;40423;53.176;6.002;2023-02-15T16:10:20;51.85;;;31.08;;
54517;SDS011;40423;53.176;6.002;2023-02-15T16:12:49;46.55;;;29.35;;
54517;SDS011;40423;53.176;6.002;2023-02-15T16:17:50;54.80;;;32.53;;
54517;SDS011;40423;53.176;6.002;2023-02-15T16:23:02;47.60;;;28.88;;
54517;SDS011;40423;53.176;6.002;2023-02-15T16:25:34;48.25;;;30.13;;
54517;SDS011;40423;53.176;6.002;2023-02-15T16:28:15;55.40;;;32.20;;
54517;SDS011;40423;53.176;6.002;2023-02-15T16:30:44;56.85;;;32.45;;
54517;SDS011;40423;53.176;6.002;2023-02-15T16:33:11;50.70;;;31.13;;
54517;SDS011;40423;53.176;6.002;2023-02-15T16:35:52;48.35;;;30.95;;
54517;SDS011;40423;53.176;6.002;2023-02-15T16:41:04;79.18;;;37.45;;
54517;SDS011;40423;53.176;6.002;2023-02-15T16:43:29;54.15;;;31.92;;
54517;SDS011;40423;53.176;6.002;2023-02-15T16:46:02;74.72;;;34.03;;
54517;SDS011;40423;53.176;6.002;2023-02-15T16:48:30;55.67;;;31.58;;
54517;SDS011;40423;53.176;6.002;2023-02-15T16:50:58;62.63;;;35.17;;
54517;SDS011;40423;53.176;6.002;2023-02-15T16:53:28;53.83;;;32.83;;
54517;SDS011;40423;53.176;6.002;2023-02-15T16:55:55;52.85;;;33.85;;
54517;SDS011;40423;53.176;6.002;2023-02-15T16:58:27;51.72;;;31.50;;
54517;SDS011;40423;53.176;6.002;2023-02-15T17:01:00;52.78;;;34.50;;
54517;SDS011;40423;53.176;6.002;2023-02-15T17:03:27;51.40;;;32.65;;
54517;SDS011;40423;53.176;6.002;2023-02-15T17:05:58;51.42;;;33.30;;
54517;SDS011;40423;53.176;6.002;2023-02-15T17:13:38;52.40;;;36.17;;
54517;SDS011;40423;53.176;6.002;2023-02-15T17:18:31;56.22;;;34.25;;
54517;SDS011;40423;53.176;6.002;2023-02-15T17:21:09;55.28;;;36.30;;
54517;SDS011;40423;53.176;6.002;2023-02-15T17:23:42;55.28;;;35.78;;
54517;SDS011;40423;53.176;6.002;2023-02-15T17:26:20;59.97;;;36.42;;
54517;SDS011;40423;53.176;6.002;2023-02-15T17:28:56;63.05;;;37.38;;
54517;SDS011;40423;53.176;6.002;2023-02-15T17:31:43;59.90;;;36.45;;
54517;SDS011;40423;53.176;6.002;2023-02-15T17:37:10;50.13;;;33.85;;
54517;SDS011;40423;53.176;6.002;2023-02-15T17:39:38;50.58;;;33.45;;
54517;SDS011;40423;53.176;6.002;2023-02-15T17:42:05;57.17;;;35.88;;
54517;SDS011;40423;53.176;6.002;2023-02-15T17:44:31;57.75;;;36.35;;
54517;SDS011;40423;53.176;6.002;2023-02-15T17:46:57;58.00;;;36.10;;
54517;SDS011;40423;53.176;6.002;2023-02-15T17:49:23;60.60;;;37.45;;
54517;SDS011;40423;53.176;6.002;2023-02-15T17:51:53;65.50;;;37.88;;
54517;SDS011;40423;53.176;6.002;2023-02-15T17:54:19;55.85;;;34.83;;
54517;SDS011;40423;53.176;6.002;2023-02-15T17:57:07;87.45;;;40.78;;
54517;SDS011;40423;53.176;6.002;2023-02-15T17:59:37;64.55;;;39.85;;
54517;SDS011;40423;53.176;6.002;2023-02-15T18:02:22;59.72;;;37.20;;
54517;SDS011;40423;53.176;6.002;2023-02-15T18:05:15;59.15;;;37.83;;
54517;SDS011;40423;53.176;6.002;2023-02-15T18:07:59;58.75;;;38.50;;
54517;SDS011;40423;53.176;6.002;2023-02-15T18:10:44;57.97;;;37.70;;
54517;SDS011;40423;53.176;6.002;2023-02-15T18:13:28;60.85;;;37.78;;
54517;SDS011;40423;53.176;6.002;2023-02-15T18:15:54;62.90;;;39.33;;
54517;SDS011;40423;53.176;6.002;2023-02-15T18:18:20;55.33;;;37.58;;
54517;SDS011;40423;53.176;6.002;2023-02-15T18:20:48;60.45;;;36.75;;
54517;SDS011;40423;53.176;6.002;2023-02-15T18:23:14;62.70;;;39.00;;
54517;SDS011;40423;53.176;6.002;2023-02-15T18:25:40;61.25;;;39.30;;
54517;SDS011;40423;53.176;6.002;2023-02-15T18:28:07;57.13;;;38.03;;
54517;SDS011;40423;53.176;6.002;2023-02-15T18:30:34;62.42;;;40.22;;
54517;SDS011;40423;53.176;6.002;2023-02-15T18:33:01;66.97;;;41.25;;
54517;SDS011;40423;53.176;6.002;2023-02-15T18:35:29;55.42;;;36.00;;
54517;SDS011;40423;53.176;6.002;2023-02-15T18:37:57;61.05;;;38.25;;